Time;durP1;ratioP1;P1;durP2;ratioP2;P2;SDS_P1;SDS_P2;PMS_P1;PMS_P2;Temp;Humidity;BMP_temperature;BMP_pressure;BME280_temperature;BME280_humidity;BME280_pressure;Samples;Min_cycle;Max_cycle;Signal;HPM_P1;HPM_P2
2022/08/12 00:44:09;;;;;;;5.93;3.40;;;;;;;20.88;53.31;101610.03;5007229;28;20525;-88
2022/08/12 00:46:59;;;;;;;11.73;3.65;;;;;;;20.74;53.72;101617.94;4996466;28;20025;-88
2022/08/12 00:49:27;;;;;;;4.13;3.20;;;;;;;20.67;53.72;101619.78;4999979;28;20041;-88
2022/08/12 00:52:10;;;;;;;4.45;3.30;;;;;;;20.57;54.08;101625.41;4995609;28;20041;-88
2022/08/12 00:54:48;;;;;;;4.15;3.25;;;;;;;20.50;54.34;101626.44;4994137;28;20064;-88
2022/08/12 00:57:20;;;;;;;5.15;3.60;;;;;;;20.45;54.76;101626.22;4997089;28;20384;-88
2022/08/12 00:59:48;;;;;;;4.97;3.42;;;;;;;20.40;54.64;101624.19;4995769;28;20123;-88
2022/08/12 01:02:26;;;;;;;6.40;3.47;;;;;;;20.38;54.56;101626.19;5004731;28;20037;-87
2022/08/12 01:13:16;;;;;;;6.70;3.67;;;;;;;20.30;55.14;101639.56;5010316;28;20057;-88
2022/08/12 01:15:44;;;;;;;7.47;3.60;;;;;;;20.25;55.35;101629.66;4997419;28;20482;-88
2022/08/12 01:18:12;;;;;;;6.20;4.22;;;;;;;20.21;55.13;101626.59;4995572;28;20092;-88
2022/08/12 01:20:46;;;;;;;8.27;3.90;;;;;;;20.18;55.05;101632.25;5009634;28;20021;-88
2022/08/12 01:23:34;;;;;;;5.35;3.50;;;;;;;20.17;55.03;101624.53;5000313;28;20034;-88
2022/08/12 01:26:02;;;;;;;5.55;3.70;;;;;;;20.15;54.61;101630.00;4995738;28;20041;-88
2022/08/12 01:28:30;;;;;;;5.43;3.50;;;;;;;20.13;54.57;101628.59;4997411;28;20075;-89
2022/08/12 01:31:01;;;;;;;5.60;2.83;;;;;;;20.10;54.77;101642.97;4995928;28;20053;-88
2022/08/12 01:33:31;;;;;;;5.35;3.00;;;;;;;20.09;54.71;101638.72;4994822;28;20032;-88
2022/08/12 01:36:02;;;;;;;4.25;3.33;;;;;;;20.06;55.16;101639.13;4994116;28;20064;-88
2022/08/12 01:38:33;;;;;;;5.85;3.00;;;;;;;20.02;55.23;101636.06;4996069;28;20103;-88
2022/08/12 01:41:00;;;;;;;4.80;3.20;;;;;;;19.99;54.98;101631.19;4994401;28;20053;-88
2022/08/12 01:43:27;;;;;;;5.13;3.00;;;;;;;19.95;55.42;101637.88;4994839;28;20612;-88
2022/08/12 01:46:26;;;;;;;4.72;3.47;;;;;;;19.84;55.87;101636.63;5009267;28;20032;-88
2022/08/12 01:49:11;;;;;;;6.22;3.40;;;;;;;19.78;56.14;101636.59;5011109;28;20484;-87
2022/08/12 01:51:42;;;;;;;6.97;3.72;;;;;;;19.56;56.91;101630.59;5005593;28;20371;-88
2022/08/12 01:54:11;;;;;;;8.65;3.47;;;;;;;19.43;57.40;101640.03;4992705;28;20033;-88
2022/08/12 01:56:47;;;;;;;8.38;3.80;;;;;;;19.41;57.50;101628.09;4992695;28;20599;-88
2022/08/12 01:59:45;;;;;;;6.28;3.97;;;;;;;19.39;57.31;101619.59;4996397;28;20029;-88
2022/08/12 02:02:18;;;;;;;6.18;3.97;;;;;;;19.39;57.17;101620.41;4990886;28;20059;-88
2022/08/12 02:11:18;;;;;;;6.47;3.83;;;;;;;19.35;57.14;101628.88;5010482;28;20043;-88
2022/08/12 02:13:54;;;;;;;6.65;3.90;;;;;;;19.28;57.59;101625.41;4987470;28;20034;-89
2022/08/12 02:16:35;;;;;;;6.13;3.67;;;;;;;19.18;57.98;101633.66;4995166;28;20766;-88
2022/08/12 02:19:39;;;;;;;6.80;4.07;;;;;;;19.12;58.06;101639.66;4993641;28;20676;-88
2022/08/12 02:22:23;;;;;;;6.07;3.90;;;;;;;19.10;58.13;101636.41;5006166;28;20179;-88
2022/08/12 02:24:53;;;;;;;5.43;3.53;;;;;;;19.10;58.00;101639.88;4989870;28;20471;-88
2022/08/12 02:27:20;;;;;;;6.07;3.65;;;;;;;19.06;57.96;101628.91;4997437;28;20029;-88
2022/08/12 02:29:47;;;;;;;8.32;4.10;;;;;;;19.05;58.12;101626.47;4992237;28;20087;-88
2022/08/12 02:32:13;;;;;;;9.10;3.72;;;;;;;19.04;58.08;101628.31;4996745;28;20106;-87
2022/08/12 02:34:39;;;;;;;7.63;3.55;;;;;;;19.02;58.01;101627.69;5008073;28;20545;-87
2022/08/12 02:37:09;;;;;;;7.20;3.70;;;;;;;18.99;58.49;101632.50;5004798;28;20025;-88
2022/08/12 02:39:38;;;;;;;6.22;3.83;;;;;;;18.90;58.93;101633.66;4993229;28;21755;-87
2022/08/12 02:42:17;;;;;;;7.43;3.78;;;;;;;18.77;59.46;101627.25;4991098;28;21794;-88
2022/08/12 02:44:47;;;;;;;5.80;3.70;;;;;;;18.76;59.33;101632.69;5011239;28;20034;-88
2022/08/12 02:47:14;;;;;;;8.23;4.75;;;;;;;18.75;59.28;101629.25;4991401;28;20132;-88
2022/08/12 02:49:47;;;;;;;5.53;4.05;;;;;;;18.75;59.41;101631.09;5004437;28;20037;-88
2022/08/12 02:52:14;;;;;;;6.22;3.85;;;;;;;18.73;59.38;101640.97;5004983;28;21600;-87
2022/08/12 02:54:44;;;;;;;8.10;4.20;;;;;;;18.70;59.66;101641.34;5000856;28;20474;-87
2022/08/12 02:57:12;;;;;;;7.60;4.40;;;;;;;18.59;60.13;101640.03;5008299;28;20033;-87
2022/08/12 02:59:39;;;;;;;8.38;3.95;;;;;;;18.54;60.37;101637.16;5010341;28;20036;-88
2022/08/12 03:02:10;;;;;;;7.22;4.10;;;;;;;18.52;60.48;101642.59;4996795;28;20821;-87
2022/08/12 03:04:50;;;;;;;8.68;3.92;;;;;;;18.44;60.90;101635.66;5000937;28;20075;-87
2022/08/12 03:07:27;;;;;;;6.50;4.40;;;;;;;18.34;61.10;101632.53;4992896;28;20124;-87
2022/08/12 03:10:08;;;;;;;8.75;4.28;;;;;;;18.21;61.66;101635.03;4996863;28;20033;-87
2022/08/12 03:12:36;;;;;;;8.57;4.55;;;;;;;18.07;62.20;101626.19;5005708;28;20044;-87
2022/08/12 03:15:05;;;;;;;9.52;4.70;;;;;;;17.98;62.48;101636.00;5002173;28;20572;-88
2022/08/12 03:17:45;;;;;;;6.40;4.18;;;;;;;17.94;62.68;101639.19;4991809;28;20060;-87
2022/08/12 03:20:15;;;;;;;5.93;4.22;;;;;;;17.96;62.42;101624.06;5012751;28;20039;-88
2022/08/12 03:22:44;;;;;;;7.55;4.18;;;;;;;17.99;62.44;101624.50;4996024;28;20044;-88
2022/08/12 03:25:20;;;;;;;9.23;4.97;;;;;;;17.96;62.63;101627.50;4993209;28;20112;-87
2022/08/12 03:27:57;;;;;;;10.30;4.07;;;;;;;17.80;63.16;101627.66;5011251;28;20040;-88
2022/08/12 03:30:24;;;;;;;8.77;4.93;;;;;;;17.67;63.66;101626.53;5006316;28;20037;-87
2022/08/12 03:32:52;;;;;;;6.07;4.45;;;;;;;17.55;64.22;101630.59;4995572;28;20062;-87
2022/08/12 03:35:26;;;;;;;8.50;4.57;;;;;;;17.49;64.31;101629.50;4993850;28;20025;-87
2022/08/12 03:38:08;;;;;;;7.80;4.53;;;;;;;17.49;64.49;101626.09;5001683;28;20026;-87
2022/08/12 04:00:22;;;;;;;7.82;4.72;;;;;;;17.60;64.55;101630.06;5013155;28;20041;-87
2022/08/12 04:02:58;;;;;;;11.27;4.38;;;;;;;17.53;64.89;101635.22;4996184;28;20044;-88
2022/08/12 04:05:25;;;;;;;7.55;4.72;;;;;;;17.46;65.18;101629.06;4987405;28;20136;-87
2022/08/12 04:07:52;;;;;;;7.95;5.10;;;;;;;17.41;65.47;101632.22;4998206;28;20501;-87
2022/08/12 04:10:18;;;;;;;7.28;5.60;;;;;;;17.34;65.77;101628.69;5004534;28;20017;-87
2022/08/12 04:15:30;;;;;;;10.82;5.40;;;;;;;17.18;66.27;101640.19;5005326;28;20194;-88
2022/08/12 04:17:59;;;;;;;7.72;5.13;;;;;;;17.16;66.78;101630.84;4999207;28;20033;-88
2022/08/12 04:20:25;;;;;;;6.70;4.82;;;;;;;17.18;66.88;101637.56;4994817;28;20112;-87
2022/08/12 04:22:52;;;;;;;6.75;5.07;;;;;;;17.24;66.26;101639.47;4988112;28;20036;-88
2022/08/12 04:25:18;;;;;;;7.63;4.65;;;;;;;17.28;65.88;101635.47;4984222;28;20034;-88
2022/08/12 04:27:44;;;;;;;8.60;4.95;;;;;;;17.34;66.02;101647.06;4997618;28;20025;-88
2022/08/12 04:30:11;;;;;;;14.82;5.80;;;;;;;17.32;66.21;101644.59;4993001;28;20025;-88
2022/08/12 04:32:38;;;;;;;10.20;5.70;;;;;;;17.18;66.91;101642.81;4991947;28;20479;-88
2022/08/12 04:35:04;;;;;;;9.25;5.35;;;;;;;17.05;67.69;101640.78;4996146;28;20030;-87
2022/08/12 04:37:29;;;;;;;9.23;5.78;;;;;;;16.97;68.22;101640.88;4989639;28;20102;-88
2022/08/12 04:39:56;;;;;;;9.18;5.50;;;;;;;16.89;68.26;101636.50;4981424;28;20029;-88
2022/08/12 04:42:24;;;;;;;7.78;5.95;;;;;;;16.82;68.49;101634.75;4991701;28;20075;-88
2022/08/12 04:44:50;;;;;;;7.28;4.80;;;;;;;16.72;68.97;101635.00;4996590;28;20022;-88
2022/08/12 04:47:16;;;;;;;11.10;5.72;;;;;;;16.64;69.44;101629.81;4996030;28;20037;-88
2022/08/12 04:49:43;;;;;;;7.38;5.07;;;;;;;16.57;69.81;101640.16;4993252;28;20482;-87
2022/08/12 04:52:09;;;;;;;8.45;5.05;;;;;;;16.57;69.81;101634.13;4994902;28;20518;-88
2022/08/12 04:54:36;;;;;;;10.60;5.78;;;;;;;16.53;70.13;101626.63;4995146;28;20043;-87
2022/08/12 04:57:02;;;;;;;9.23;6.18;;;;;;;16.51;70.55;101631.22;4992290;28;20120;-88
2022/08/12 04:59:29;;;;;;;9.85;6.15;;;;;;;16.49;70.79;101635.00;4997548;28;20116;-87
2022/08/12 05:01:56;;;;;;;11.00;6.50;;;;;;;16.48;70.89;101626.34;4993119;28;20087;-88
2022/08/12 05:04:24;;;;;;;13.93;6.10;;;;;;;16.52;70.65;101626.81;5004096;28;20040;-88
2022/08/12 05:06:50;;;;;;;9.60;5.05;;;;;;;16.61;70.54;101628.34;4998775;28;20033;-88
2022/08/12 05:09:16;;;;;;;8.93;5.28;;;;;;;16.71;70.20;101622.91;4993360;28;20091;-88
2022/08/12 05:11:42;;;;;;;15.52;6.80;;;;;;;16.83;69.69;101620.69;5003277;28;20038;-88
2022/08/12 05:14:10;;;;;;;7.47;5.35;;;;;;;16.92;69.50;101619.63;4993314;28;20037;-87
2022/08/12 05:16:36;;;;;;;6.45;5.20;;;;;;;17.02;69.39;101629.84;4995825;28;20038;-87
2022/08/12 05:19:02;;;;;;;8.98;6.15;;;;;;;17.09;69.54;101630.78;4983509;28;20042;-87
2022/08/12 05:21:38;;;;;;;8.68;6.30;;;;;;;17.15;69.28;101643.16;4995672;28;20061;-87
2022/08/12 05:24:04;;;;;;;8.65;6.20;;;;;;;17.21;69.08;101639.81;4999244;28;20034;-87
2022/08/12 05:26:29;;;;;;;8.20;5.18;;;;;;;17.29;69.35;101641.53;4996041;28;20061;-88
2022/08/12 05:28:55;;;;;;;9.52;5.88;;;;;;;17.35;69.29;101640.81;5012888;28;20041;-88
2022/08/12 05:31:21;;;;;;;12.63;5.60;;;;;;;17.39;70.03;101642.09;5001162;28;20029;-88
2022/08/12 05:33:46;;;;;;;9.18;5.22;;;;;;;17.41;70.33;101641.91;5007284;28;20063;-88
2022/08/12 05:36:14;;;;;;;8.73;5.60;;;;;;;17.46;69.59;101643.00;4990596;28;20025;-88
2022/08/12 05:38:57;;;;;;;12.35;5.32;;;;;;;17.52;68.99;101641.47;4997070;28;20572;-87
2022/08/12 05:41:32;;;;;;;8.02;5.40;;;;;;;17.58;69.51;101643.34;4993224;28;20049;-88
2022/08/12 05:44:00;;;;;;;9.20;5.45;;;;;;;17.64;68.92;101642.63;4994465;28;20034;-87
2022/08/12 05:46:27;;;;;;;10.63;6.22;;;;;;;17.69;68.85;101642.09;4995529;28;20429;-87
2022/08/12 05:48:55;;;;;;;11.73;6.00;;;;;;;17.74;69.02;101642.31;5002574;28;20040;-87
2022/08/12 05:51:25;;;;;;;8.57;5.32;;;;;;;17.80;68.94;101640.78;5014296;28;20033;-87
2022/08/12 05:53:52;;;;;;;12.10;5.97;;;;;;;17.85;69.06;101647.13;4996638;28;20475;-87
2022/08/12 05:56:23;;;;;;;11.43;5.90;;;;;;;17.92;68.97;101647.22;4992595;28;20034;-88
2022/08/12 05:58:50;;;;;;;10.10;5.95;;;;;;;18.00;69.11;101651.56;4996598;28;20037;-87
2022/08/12 06:01:16;;;;;;;8.52;5.65;;;;;;;18.18;68.33;101648.53;5007231;28;20041;-87
2022/08/12 06:03:42;;;;;;;8.82;6.20;;;;;;;18.46;67.05;101649.41;5006219;28;20064;-87
2022/08/12 06:06:09;;;;;;;10.63;5.60;;;;;;;18.85;65.67;101650.81;5002440;28;20297;-87
2022/08/12 06:08:35;;;;;;;11.43;6.18;;;;;;;19.31;62.55;101648.66;4992868;28;20033;-87
2022/08/12 06:11:03;;;;;;;12.60;6.63;;;;;;;19.72;61.39;101642.59;5010647;28;20037;-87
2022/08/12 06:13:42;;;;;;;10.68;5.47;;;;;;;20.18;59.93;101645.41;5006398;28;20494;-87
2022/08/12 06:16:10;;;;;;;15.27;6.20;;;;;;;20.54;58.01;101638.97;5009303;28;20033;-87
2022/08/12 06:18:39;;;;;;;13.95;5.72;;;;;;;20.87;57.42;101645.28;4993190;28;20483;-87
2022/08/12 06:21:09;;;;;;;7.60;5.15;;;;;;;21.14;55.94;101644.25;4997975;28;20036;-87
2022/08/12 06:23:36;;;;;;;19.48;5.53;;;;;;;21.39;55.32;101644.38;4992203;28;20391;-87
2022/08/12 06:26:03;;;;;;;8.73;4.97;;;;;;;21.59;54.84;101646.19;4991611;28;20024;-87
2022/08/12 06:28:29;;;;;;;10.63;5.22;;;;;;;21.85;54.01;101652.34;4996596;28;20040;-87
2022/08/12 06:31:00;;;;;;;10.25;4.82;;;;;;;22.07;53.44;101648.38;4988779;28;20105;-87
2022/08/12 06:33:25;;;;;;;11.18;5.47;;;;;;;22.28;52.45;101641.19;4996179;28;20037;-87
2022/08/12 06:35:52;;;;;;;12.40;4.72;;;;;;;22.32;51.40;101637.09;4992368;28;20041;-87
2022/08/12 06:38:35;;;;;;;6.18;4.43;;;;;;;22.35;52.05;101641.94;4990202;28;20443;-86
2022/08/12 06:43:50;;;;;;;11.10;5.03;;;;;;;22.05;52.90;101641.72;5006278;28;20606;-86
2022/08/12 06:46:17;;;;;;;17.98;8.93;;;;;;;22.04;52.26;101640.06;4992630;28;20121;-86
2022/08/12 06:48:42;;;;;;;21.23;13.25;;;;;;;21.90;53.29;101636.72;4988126;28;20053;-86
2022/08/12 06:51:09;;;;;;;14.20;8.88;;;;;;;21.83;53.85;101633.28;5005161;28;20044;-87
2022/08/12 06:53:38;;;;;;;11.70;4.38;;;;;;;21.81;52.83;101630.06;4991836;28;20116;-87
2022/08/12 06:56:05;;;;;;;7.18;3.85;;;;;;;21.89;52.85;101630.63;4992126;28;20502;-87
2022/08/12 06:58:43;;;;;;;5.53;3.83;;;;;;;22.05;51.50;101636.44;4989575;28;20026;-87
2022/08/12 07:01:09;;;;;;;10.30;4.18;;;;;;;22.32;49.10;101632.63;4998395;28;20121;-86
2022/08/12 07:03:35;;;;;;;12.00;3.40;;;;;;;22.54;49.15;101629.63;4988614;28;20052;-86
2022/08/12 07:06:10;;;;;;;12.60;3.63;;;;;;;22.82;48.37;101633.66;4994958;28;20029;-87
2022/08/12 07:08:40;;;;;;;6.28;3.88;;;;;;;23.19;46.50;101631.91;5002271;28;20505;-86
2022/08/12 07:11:08;;;;;;;8.32;3.42;;;;;;;23.77;45.48;101630.59;5004708;28;20058;-86
2022/08/12 07:13:37;;;;;;;9.45;3.30;;;;;;;24.44;43.24;101625.16;5002150;28;20498;-88
2022/08/12 07:16:04;;;;;;;14.45;3.67;;;;;;;25.18;41.37;101619.38;4997910;28;20119;-87
2022/08/12 07:18:34;;;;;;;10.40;3.65;;;;;;;25.89;40.61;101629.81;4990721;28;20037;-87
2022/08/12 07:21:02;;;;;;;13.68;3.22;;;;;;;26.61;39.46;101628.38;4989752;28;20037;-87
2022/08/12 07:23:30;;;;;;;8.77;3.17;;;;;;;26.93;38.25;101628.53;4981467;28;1099894;-85
2022/08/12 07:25:56;;;;;;;9.90;4.00;;;;;;;27.23;38.04;101623.88;4990556;28;20030;-86
2022/08/12 07:28:26;;;;;;;6.68;3.50;;;;;;;27.77;37.36;101627.41;5006808;28;20112;-87
2022/08/12 07:31:03;;;;;;;6.82;3.17;;;;;;;28.34;37.47;101630.59;4991971;28;20639;-86
2022/08/12 07:33:30;;;;;;;7.43;3.08;;;;;;;28.52;36.00;101626.75;4989436;28;20057;-86
2022/08/12 07:36:05;;;;;;;4.57;2.70;;;;;;;28.89;35.63;101629.34;5003710;28;20133;-86
2022/08/12 07:38:45;;;;;;;9.13;3.13;;;;;;;29.34;35.30;101626.38;5005413;28;20037;-87
2022/08/12 07:41:18;;;;;;;4.82;2.58;;;;;;;29.49;33.87;101629.09;5021277;28;20065;-88
2022/08/12 07:43:53;;;;;;;5.80;2.92;;;;;;;29.35;32.33;101630.63;4987982;28;20033;-87
2022/08/12 07:46:25;;;;;;;15.40;3.45;;;;;;;29.68;31.55;101632.84;4988778;28;20056;-86
2022/08/12 07:48:55;;;;;;;6.70;2.33;;;;;;;29.71;31.62;101626.19;5009477;28;20573;-87
2022/08/12 07:51:23;;;;;;;7.38;2.20;;;;;;;30.13;30.93;101624.38;5007287;28;20036;-87
2022/08/12 07:53:49;;;;;;;5.32;2.00;;;;;;;30.36;30.52;101631.06;4988820;28;20053;-87
2022/08/12 07:56:16;;;;;;;4.47;2.63;;;;;;;30.60;29.96;101628.63;4991821;28;20032;-86
2022/08/12 07:58:42;;;;;;;5.22;2.13;;;;;;;30.59;30.30;101630.50;4995244;28;20653;-87
2022/08/12 08:01:11;;;;;;;9.65;2.53;;;;;;;30.62;30.24;101637.19;5006861;28;20033;-87
2022/08/12 08:06:41;;;;;;;8.57;2.30;;;;;;;30.40;29.66;101632.97;4932506;28;20134;-86
2022/08/12 08:09:09;;;;;;;6.15;1.98;;;;;;;30.77;29.28;101637.13;4989548;28;20080;-87
2022/08/12 08:14:19;;;;;;;6.15;1.83;;;;;;;31.07;28.59;101635.47;5005237;28;20030;-87
2022/08/12 08:16:47;;;;;;;4.50;2.20;;;;;;;31.03;28.81;101631.75;4994178;28;20094;-87
2022/08/12 08:19:22;;;;;;;4.55;1.88;;;;;;;31.05;28.62;101632.28;4993347;28;20040;-86
2022/08/12 08:21:52;;;;;;;3.67;2.20;;;;;;;31.14;28.09;101638.66;4995196;28;20087;-86
2022/08/12 08:24:17;;;;;;;5.82;2.17;;;;;;;31.03;28.44;101639.78;5006218;28;20104;-87
2022/08/12 08:26:48;;;;;;;5.20;2.15;;;;;;;31.40;27.29;101644.69;5007961;28;20132;-87
2022/08/12 08:29:20;;;;;;;6.57;2.42;;;;;;;31.69;28.34;101638.66;4993761;28;20042;-86
2022/08/12 08:31:49;;;;;;;5.30;2.47;;;;;;;31.73;28.22;101634.31;4993822;28;20405;-87
2022/08/12 08:34:16;;;;;;;8.57;2.67;;;;;;;32.17;27.36;101636.16;4988598;28;20034;-86
2022/08/12 08:36:42;;;;;;;5.90;2.38;;;;;;;32.00;27.25;101633.88;4992119;28;20058;-87
2022/08/12 08:39:09;;;;;;;3.58;2.20;;;;;;;32.11;27.19;101633.78;5004907;28;20029;-84
2022/08/12 08:44:20;;;;;;;5.55;3.13;;;;;;;32.72;26.76;101630.53;5009264;28;20033;-86
2022/08/12 08:46:48;;;;;;;4.28;2.10;;;;;;;32.53;25.97;101635.00;4989196;28;20038;-86
2022/08/12 08:49:15;;;;;;;6.05;2.03;;;;;;;32.40;26.90;101631.13;4995746;28;20481;-84
2022/08/12 08:51:42;;;;;;;3.58;2.10;;;;;;;32.39;26.13;101632.97;4988114;28;20041;-85
2022/08/12 08:54:10;;;;;;;3.85;2.20;;;;;;;32.71;26.67;101628.13;4999231;28;20041;-85
2022/08/12 08:56:42;;;;;;;10.38;2.20;;;;;;;32.47;26.00;101636.13;5010878;28;20025;-87
2022/08/12 08:59:12;;;;;;;10.17;3.07;;;;;;;32.81;26.22;101628.00;4989525;28;20053;-86
2022/08/12 09:01:42;;;;;;;5.43;2.10;;;;;;;33.11;26.11;101626.06;4997991;28;20026;-86
2022/08/12 09:04:09;;;;;;;4.50;2.20;;;;;;;33.22;24.78;101622.16;4991992;28;20021;-86
2022/08/12 09:06:35;;;;;;;4.65;2.30;;;;;;;32.81;25.93;101621.84;5010066;28;20038;-85
2022/08/12 09:09:03;;;;;;;6.43;2.08;;;;;;;32.51;25.98;101626.44;4995318;28;20053;-86
2022/08/12 09:14:15;;;;;;;8.55;2.22;;;;;;;32.32;25.50;101621.78;5018050;28;20128;-86
2022/08/12 09:16:40;;;;;;;2.55;1.50;;;;;;;32.56;25.64;101629.84;5000009;28;20051;-86
2022/08/12 09:19:12;;;;;;;6.95;1.88;;;;;;;32.67;25.48;101617.16;5017877;28;20490;-85
2022/08/12 09:21:39;;;;;;;7.50;2.00;;;;;;;32.95;25.62;101620.88;5012307;28;20064;-86
2022/08/12 09:24:06;;;;;;;3.13;2.00;;;;;;;33.14;25.75;101618.22;4993879;28;20494;-86
2022/08/12 09:26:33;;;;;;;4.95;2.40;;;;;;;33.54;25.13;101616.03;5010338;28;20029;-85
2022/08/12 09:28:58;;;;;;;4.82;1.90;;;;;;;33.20;24.82;101605.53;5005213;28;20103;-87
2022/08/12 09:31:24;;;;;;;4.40;2.13;;;;;;;32.91;25.23;101622.53;5000456;28;20029;-87
2022/08/12 09:33:50;;;;;;;7.00;2.35;;;;;;;32.78;25.18;101612.50;4998036;28;20364;-85
2022/08/12 09:36:17;;;;;;;6.50;2.15;;;;;;;33.25;25.26;101604.66;5001803;28;20207;-86
2022/08/12 09:38:43;;;;;;;2.75;1.85;;;;;;;33.22;25.06;101603.34;5014961;28;20029;-87
2022/08/12 09:41:09;;;;;;;5.45;1.85;;;;;;;33.24;25.17;101603.84;5003272;28;20033;-85
2022/08/12 09:46:23;;;;;;;8.57;2.03;;;;;;;33.34;24.60;101594.84;5027507;28;20034;-86
2022/08/12 09:48:48;;;;;;;4.28;2.40;;;;;;;33.19;24.19;101587.81;4998891;28;20037;-86
2022/08/12 09:51:15;;;;;;;5.18;1.83;;;;;;;32.76;24.46;101590.50;4999109;28;20045;-85
2022/08/12 09:53:40;;;;;;;5.82;1.83;;;;;;;32.89;24.56;101583.59;4993474;28;20129;-85
2022/08/12 09:56:10;;;;;;;8.75;2.13;;;;;;;33.32;24.48;101591.66;4997174;28;20029;-85
2022/08/12 09:58:36;;;;;;;6.75;1.60;;;;;;;33.54;23.81;101591.84;4992482;28;20059;-85
2022/08/12 10:01:05;;;;;;;6.28;1.95;;;;;;;33.61;23.79;101588.00;5001156;28;20033;-85
2022/08/12 10:03:32;;;;;;;6.57;1.77;;;;;;;33.60;23.94;101583.72;5008087;28;20028;-86
2022/08/12 10:06:00;;;;;;;7.45;2.25;;;;;;;33.60;23.30;101578.34;4995800;28;20026;-86
2022/08/12 10:08:29;;;;;;;4.25;2.22;;;;;;;33.53;23.33;101582.22;4990888;28;20087;-86
2022/08/12 10:13:43;;;;;;;4.72;1.90;;;;;;;33.73;23.50;101569.56;5009494;28;20030;-88
2022/08/12 10:16:11;;;;;;;3.45;1.80;;;;;;;33.42;23.46;101561.97;4986087;28;20041;-86
2022/08/12 10:18:40;;;;;;;3.15;1.52;;;;;;;33.68;23.27;101569.63;4992389;28;20110;-83
2022/08/12 10:21:17;;;;;;;5.32;2.38;;;;;;;33.44;22.98;101567.03;5008690;28;20061;-85
2022/08/12 10:23:45;;;;;;;2.08;1.73;;;;;;;33.68;23.89;101558.88;5007788;28;20466;-86
2022/08/12 10:31:47;;;;;;;4.60;1.90;;;;;;;33.81;22.56;101539.28;5016545;28;20049;-86
2022/08/12 10:34:13;;;;;;;6.78;1.55;;;;;;;33.77;23.03;101534.81;5001129;28;20048;-85
2022/08/12 10:36:40;;;;;;;3.78;1.65;;;;;;;33.73;23.05;101537.28;5004547;28;20026;-84
2022/08/12 10:39:07;;;;;;;4.40;1.67;;;;;;;34.00;23.07;101527.66;5001970;28;20057;-85
2022/08/12 10:44:20;;;;;;;5.53;2.00;;;;;;;33.78;22.49;101517.59;5012687;28;20057;-87
2022/08/12 10:46:45;;;;;;;4.78;1.60;;;;;;;33.65;22.74;101519.16;4995556;28;20033;-84
2022/08/12 10:49:11;;;;;;;5.72;1.88;;;;;;;33.52;22.75;101512.63;5000399;28;20025;-84
2022/08/12 10:51:38;;;;;;;4.32;1.85;;;;;;;33.60;23.34;101516.53;4997731;28;20458;-85
2022/08/12 10:54:04;;;;;;;6.15;1.85;;;;;;;33.78;23.41;101518.38;5013608;28;20120;-86
2022/08/12 10:56:33;;;;;;;3.50;1.80;;;;;;;33.60;23.38;101506.56;5006517;28;20025;-85
2022/08/12 10:58:58;;;;;;;5.88;1.73;;;;;;;33.42;23.22;101499.34;5011337;28;20126;-85
2022/08/12 11:01:24;;;;;;;6.03;1.88;;;;;;;33.59;22.63;101496.91;5008405;28;20033;-85
2022/08/12 11:03:50;;;;;;;4.20;1.65;;;;;;;33.84;23.30;101501.06;5016048;28;20083;-85
2022/08/12 11:06:20;;;;;;;4.90;2.30;;;;;;;33.92;22.45;101503.06;5012541;28;20025;-86
2022/08/12 11:08:47;;;;;;;3.50;1.63;;;;;;;33.62;22.47;101503.56;5010411;28;20028;-86
2022/08/12 11:11:16;;;;;;;6.18;1.83;;;;;;;33.64;22.98;101499.53;4996812;28;20129;-83
2022/08/12 11:13:44;;;;;;;3.53;1.65;;;;;;;33.80;22.48;101489.31;5005908;28;20036;-86
2022/08/12 11:16:09;;;;;;;12.55;2.50;;;;;;;34.14;21.64;101491.63;5006208;28;20045;-83
2022/08/12 11:18:35;;;;;;;2.10;1.75;;;;;;;33.83;21.97;101474.47;5002511;28;20028;-85
2022/08/12 11:21:00;;;;;;;6.05;1.60;;;;;;;33.98;22.84;101486.84;5000972;28;20041;-86
2022/08/12 11:23:26;;;;;;;2.75;1.65;;;;;;;33.94;22.43;101484.75;5012595;28;20037;-86
2022/08/12 11:25:51;;;;;;;6.70;1.88;;;;;;;33.92;22.65;101480.75;5011250;28;20037;-83
2022/08/12 11:28:26;;;;;;;6.80;1.90;;;;;;;34.19;22.36;101481.88;4992110;28;20026;-86
2022/08/12 11:30:52;;;;;;;11.13;2.05;;;;;;;34.41;21.80;101470.41;5008606;28;20022;-85
2022/08/12 11:33:17;;;;;;;2.67;1.70;;;;;;;34.43;21.56;101465.50;4995490;28;20887;-84
2022/08/12 11:35:43;;;;;;;3.42;1.98;;;;;;;34.03;22.60;101465.22;4999456;28;20048;-85
2022/08/12 11:38:09;;;;;;;3.97;1.60;;;;;;;34.09;22.19;101462.13;5003102;28;20029;-84
2022/08/12 11:40:35;;;;;;;4.20;1.60;;;;;;;33.97;21.59;101455.66;5003834;28;20037;-87
2022/08/12 11:43:02;;;;;;;4.47;2.03;;;;;;;33.68;22.20;101454.84;4995187;28;20037;-84
2022/08/12 11:45:28;;;;;;;8.50;1.77;;;;;;;33.94;22.31;101460.56;5027773;28;20032;-85
2022/08/12 11:47:55;;;;;;;6.47;1.60;;;;;;;34.28;21.68;101456.69;4994967;28;20388;-83
2022/08/12 11:50:22;;;;;;;3.03;1.73;;;;;;;34.03;21.17;101454.47;4997356;28;20041;-87
2022/08/12 11:52:49;;;;;;;3.38;1.80;;;;;;;33.64;22.24;101453.03;5004353;28;20099;-86
2022/08/12 11:55:15;;;;;;;2.65;1.60;;;;;;;33.61;21.79;101442.88;4996107;28;20026;-86
2022/08/12 11:57:55;;;;;;;12.77;2.20;;;;;;;33.74;21.84;101452.88;4987435;28;20029;-85
2022/08/12 12:00:22;;;;;;;5.68;1.63;;;;;;;33.96;22.05;101446.00;4992028;28;20037;-85
2022/08/12 12:02:48;;;;;;;4.03;1.90;;;;;;;33.90;20.76;101447.97;4988825;28;20482;-86
2022/08/12 12:05:15;;;;;;;1.85;1.48;;;;;;;33.81;20.95;101444.38;4995712;28;20029;-86
2022/08/12 12:07:44;;;;;;;6.80;2.42;;;;;;;34.02;21.21;101456.38;4990803;28;20478;-85
2022/08/12 12:10:16;;;;;;;4.75;2.08;;;;;;;34.19;21.49;101452.28;4996822;28;20026;-87
2022/08/12 12:12:42;;;;;;;4.60;1.55;;;;;;;34.22;21.54;101449.78;5000892;28;20029;-85
2022/08/12 12:15:09;;;;;;;4.13;1.67;;;;;;;34.37;21.21;101437.91;4993793;28;20030;-85
2022/08/12 12:17:41;;;;;;;6.63;1.60;;;;;;;34.32;21.46;101441.53;4991171;28;20061;-85
2022/08/12 12:20:09;;;;;;;6.23;2.03;;;;;;;34.14;21.56;101437.81;4979910;28;20434;-87
2022/08/12 12:22:39;;;;;;;4.72;1.80;;;;;;;34.04;21.59;101439.91;4989250;28;20029;-85
2022/08/12 12:25:06;;;;;;;3.30;1.80;;;;;;;34.11;20.84;101441.13;5011837;28;20029;-85
2022/08/12 12:27:52;;;;;;;3.30;2.03;;;;;;;34.29;20.96;101427.88;5008633;28;20056;-85
2022/08/12 12:30:19;;;;;;;1.88;1.63;;;;;;;34.42;20.84;101421.66;4998227;28;20030;-85
2022/08/12 12:32:44;;;;;;;4.72;1.80;;;;;;;34.21;21.76;101421.31;4999029;28;20471;-85
2022/08/12 12:35:10;;;;;;;3.58;1.58;;;;;;;34.00;21.94;101414.72;4993326;28;20025;-85
2022/08/12 12:37:58;;;;;;;3.85;1.80;;;;;;;33.86;21.67;101415.50;5014659;28;20026;-85
2022/08/12 12:40:24;;;;;;;2.72;1.92;;;;;;;33.71;21.91;101421.97;5017835;28;20038;-85
2022/08/12 12:42:50;;;;;;;4.03;1.58;;;;;;;33.73;21.34;101411.72;4994268;28;20030;-85
2022/08/12 12:45:16;;;;;;;4.38;2.28;;;;;;;33.77;21.70;101413.81;5002579;28;20099;-84
2022/08/12 12:48:18;;;;;;;2.45;1.63;;;;;;;34.09;21.55;101405.63;4998184;28;20025;-85
2022/08/12 12:50:46;;;;;;;3.50;1.63;;;;;;;34.10;21.90;101401.84;4980080;28;20061;-86
2022/08/12 12:53:17;;;;;;;3.45;1.70;;;;;;;33.88;21.45;101399.88;4996353;28;20588;-85
2022/08/12 12:55:45;;;;;;;4.80;1.50;;;;;;;33.65;22.60;101398.97;4997123;28;20064;-86
2022/08/12 12:58:15;;;;;;;3.30;1.55;;;;;;;33.90;21.53;101384.25;4996969;28;20033;-86
2022/08/12 13:00:43;;;;;;;9.55;2.00;;;;;;;34.17;21.41;101392.59;4995154;28;20037;-85
2022/08/12 13:03:11;;;;;;;2.28;1.80;;;;;;;34.40;21.17;101396.16;4998843;28;20103;-87
2022/08/12 13:05:37;;;;;;;2.05;1.80;;;;;;;34.22;20.23;101389.81;4996568;28;20123;-85
2022/08/12 13:08:23;;;;;;;2.22;1.90;;;;;;;34.45;19.77;101377.19;4998410;28;20046;-86
2022/08/12 13:10:54;;;;;;;3.75;1.75;;;;;;;34.27;20.48;101379.75;5022372;28;20033;-87
2022/08/12 13:13:21;;;;;;;2.85;1.20;;;;;;;34.44;19.96;101368.31;4990991;28;20682;-85
2022/08/12 13:15:48;;;;;;;2.83;1.67;;;;;;;34.48;20.04;101366.63;4991408;28;20492;-86
2022/08/12 13:18:16;;;;;;;2.90;1.48;;;;;;;34.29;19.77;101372.16;4995266;28;20505;-86
2022/08/12 13:20:43;;;;;;;2.55;1.30;;;;;;;34.17;20.05;101373.78;4995311;28;20518;-90
2022/08/12 13:23:10;;;;;;;2.47;1.50;;;;;;;34.23;19.73;101370.69;4996017;28;20038;-86